sensor_id;sensor_type;location;lat;lon;timestamp;pressure;altitude;pressure_sealevel;temperature;humidity
82512;BME280;72152;65.012;25.464;2023-08-12T14:05:24;101598.85;;;22.65;49.49
82512;BME280;72152;65.012;25.464;2023-08-12T14:08:15;101600.73;;;22.53;50.06
82512;BME280;72152;65.012;25.464;2023-08-12T14:11:00;101602.74;;;22.47;50.37
82512;BME280;72152;65.012;25.464;2023-08-12T14:13:49;101605.01;;;22.39;50.68
82512;BME280;72152;65.012;25.464;2023-08-12T14:16:33;101602.02;;;22.28;50.85
82512;BME280;72152;65.012;25.464;2023-08-12T14:19:23;101601.17;;;22.13;50.84
82512;BME280;72152;65.012;25.464;2023-08-12T14:22:11;101605.49;;;21.98;51.27
82512;BME280;72152;65.012;25.464;2023-08-12T14:25:06;101606.02;;;21.88;51.82
82512;BME280;72152;65.012;25.464;2023-08-12T14:27:53;101607.66;;;21.77;52.18
82512;BME280;72152;65.012;25.464;2023-08-12T14:30:44;101607.31;;;21.66;52.85
82512;BME280;72152;65.012;25.464;2023-08-12T14:33:31;101608.08;;;21.55;53.43
82512;BME280;72152;65.012;25.464;2023-08-12T14:36:24;101610.33;;;21.46;53.45
82512;BME280;72152;65.012;25.464;2023-08-12T14:39:12;101608.73;;;21.46;53.55
82512;BME280;72152;65.012;25.464;2023-08-12T14:42:01;101606.08;;;21.45;53.71
82512;BME280;72152;65.012;25.464;2023-08-12T14:44:43;101605.97;;;21.44;53.78
82512;BME280;72152;65.012;25.464;2023-08-12T14:47:28;101606.69;;;21.48;53.85
82512;BME280;72152;65.012;25.464;2023-08-12T14:50:19;101600.62;;;21.58;53.47
82512;BME280;72152;65.012;25.464;2023-08-12T14:53:13;101598.74;;;21.61;53.35
82512;BME280;72152;65.012;25.464;2023-08-12T14:55:59;101600.17;;;21.55;53.46
82512;BME280;72152;65.012;25.464;2023-08-12T14:58:44;101604.90;;;21.53;53.38
82512;BME280;72152;65.012;25.464;2023-08-12T15:01:31;101599.63;;;21.61;53.44
82512;BME280;72152;65.012;25.464;2023-08-12T15:04:15;101596.21;;;21.66;53.30
82512;BME280;72152;65.012;25.464;2023-08-12T15:07:01;101594.95;;;21.61;53.54
82512;BME280;72152;65.012;25.464;2023-08-12T15:09:47;101593.55;;;21.65;53.55
82512;BME280;72152;65.012;25.464;2023-08-12T15:12:25;101599.41;;;21.72;53.51
82512;BME280;72152;65.012;25.464;2023-08-12T15:15:15;101594.19;;;21.73;53.62
82512;BME280;72152;65.012;25.464;2023-08-12T15:28:19;101586.56;;;21.65;54.11
82512;BME280;72152;65.012;25.464;2023-08-12T15:31:06;101587.35;;;21.63;54.17
82512;BME280;72152;65.012;25.464;2023-08-12T15:33:51;101587.92;;;21.63;53.96
82512;BME280;72152;65.012;25.464;2023-08-12T15:36:39;101592.68;;;21.70;53.77
82512;BME280;72152;65.012;25.464;2023-08-12T15:39:35;101589.67;;;21.89;53.56
82512;BME280;72152;65.012;25.464;2023-08-12T15:42:25;101592.13;;;22.20;52.96
82512;BME280;72152;65.012;25.464;2023-08-12T15:45:21;101589.35;;;22.36;52.37
82512;BME280;72152;65.012;25.464;2023-08-12T15:48:03;101587.42;;;22.49;52.09
82512;BME280;72152;65.012;25.464;2023-08-12T15:50:54;101590.86;;;22.43;51.79
82512;BME280;72152;65.012;25.464;2023-08-12T15:53:39;101588.75;;;22.37;51.80
82512;BME280;72152;65.012;25.464;2023-08-12T15:56:21;101589.60;;;22.39;51.67
82512;BME280;72152;65.012;25.464;2023-08-12T15:59:37;101583.91;;;22.46;51.17
82512;BME280;72152;65.012;25.464;2023-08-12T16:02:36;101581.88;;;22.54;50.98
82512;BME280;72152;65.012;25.464;2023-08-12T16:06:22;101583.95;;;22.46;50.66
82512;BME280;72152;65.012;25.464;2023-08-12T16:09:33;101587.77;;;22.31;50.67
82512;BME280;72152;65.012;25.464;2023-08-12T16:12:56;101583.23;;;22.18;51.06
82512;BME280;72152;65.012;25.464;2023-08-12T16:15:45;101587.42;;;22.06;50.97
82512;BME280;72152;65.012;25.464;2023-08-12T16:19:11;101587.98;;;22.01;51.21
82512;BME280;72152;65.012;25.464;2023-08-12T16:24:44;101582.70;;;21.94;51.21
82512;BME280;72152;65.012;25.464;2023-08-12T16:27:37;101586.72;;;21.92;51.13
82512;BME280;72152;65.012;25.464;2023-08-12T16:30:30;101590.92;;;21.89;51.08
82512;BME280;72152;65.012;25.464;2023-08-12T16:33:20;101589.25;;;21.91;51.00
82512;BME280;72152;65.012;25.464;2023-08-12T16:36:14;101591.90;;;21.97;50.90
82512;BME280;72152;65.012;25.464;2023-08-12T16:39:04;101599.23;;;22.03;50.65
82512;BME280;72152;65.012;25.464;2023-08-12T16:41:53;101595.84;;;22.07;50.51
82512;BME280;72152;65.012;25.464;2023-08-12T16:44:41;101594.45;;;22.20;50.15
82512;BME280;72152;65.012;25.464;2023-08-12T16:47:32;101592.46;;;22.39;49.74
82512;BME280;72152;65.012;25.464;2023-08-12T16:50:26;101591.11;;;22.51;49.48
82512;BME280;72152;65.012;25.464;2023-08-12T16:53:13;101590.79;;;22.56;49.28
82512;BME280;72152;65.012;25.464;2023-08-12T16:56:04;101590.10;;;22.59;49.15
82512;BME280;72152;65.012;25.464;2023-08-12T16:59:10;101592.23;;;22.64;48.96
82512;BME280;72152;65.012;25.464;2023-08-12T17:02:13;101597.03;;;22.61;48.78
82512;BME280;72152;65.012;25.464;2023-08-12T17:05:00;101594.97;;;22.54;48.84
82512;BME280;72152;65.012;25.464;2023-08-12T17:07:58;101595.44;;;22.45;48.66
82512;BME280;72152;65.012;25.464;2023-08-12T17:10:48;101595.38;;;22.37;48.69
82512;BME280;72152;65.012;25.464;2023-08-12T17:13:35;101593.77;;;22.28;48.62
82512;BME280;72152;65.012;25.464;2023-08-12T17:16:28;101592.77;;;22.21;48.77
82512;BME280;72152;65.012;25.464;2023-08-12T17:19:17;101596.54;;;22.17;48.82
82512;BME280;72152;65.012;25.464;2023-08-12T17:22:09;101593.08;;;22.14;48.90
82512;BME280;72152;65.012;25.464;2023-08-12T17:25:05;101593.10;;;22.08;48.95
82512;BME280;72152;65.012;25.464;2023-08-12T17:27:49;101590.71;;;22.05;49.09
82512;BME280;72152;65.012;25.464;2023-08-12T17:30:44;101592.94;;;21.98;49.24
82512;BME280;72152;65.012;25.464;2023-08-12T17:33:36;101594.05;;;21.92;49.39
82512;BME280;72152;65.012;25.464;2023-08-12T17:36:48;101590.50;;;21.86;49.63
82512;BME280;72152;65.012;25.464;2023-08-12T17:39:57;101586.05;;;21.85;49.63
82512;BME280;72152;65.012;25.464;2023-08-12T17:42:47;101584.02;;;21.87;49.76
82512;BME280;72152;65.012;25.464;2023-08-12T17:45:37;101580.66;;;21.91;49.80
82512;BME280;72152;65.012;25.464;2023-08-12T17:48:23;101584.20;;;21.93;49.96
82512;BME280;72152;65.012;25.464;2023-08-12T17:51:09;101585.80;;;21.92;50.09
82512;BME280;72152;65.012;25.464;2023-08-12T17:54:09;101588.02;;;21.86;50.23
82512;BME280;72152;65.012;25.464;2023-08-12T17:56:55;101593.80;;;21.79;50.23
82512;BME280;72152;65.012;25.464;2023-08-12T18:00:00;101590.41;;;21.73;50.39
82512;BME280;72152;65.012;25.464;2023-08-12T18:02:45;101590.73;;;21.69;50.52
82512;BME280;72152;65.012;25.464;2023-08-12T18:05:32;101585.67;;;21.65;50.53
82512;BME280;72152;65.012;25.464;2023-08-12T18:08:20;101592.07;;;21.62;50.70
82512;BME280;72152;65.012;25.464;2023-08-12T18:11:10;101590.48;;;21.56;50.77
82512;BME280;72152;65.012;25.464;2023-08-12T18:14:01;101595.77;;;21.48;50.87
82512;BME280;72152;65.012;25.464;2023-08-12T18:16:52;101590.55;;;21.38;50.96
82512;BME280;72152;65.012;25.464;2023-08-12T18:19:45;101587.43;;;21.31;51.25
82512;BME280;72152;65.012;25.464;2023-08-12T18:22:33;101590.91;;;21.23;51.42
82512;BME280;72152;65.012;25.464;2023-08-12T18:25:20;101586.96;;;21.18;51.55
82512;BME280;72152;65.012;25.464;2023-08-12T18:28:18;101587.70;;;21.12;51.62
82512;BME280;72152;65.012;25.464;2023-08-12T18:31:09;101583.08;;;21.06;51.73
82512;BME280;72152;65.012;25.464;2023-08-12T18:34:27;101585.28;;;20.98;51.89
82512;BME280;72152;65.012;25.464;2023-08-12T18:37:18;101585.27;;;20.92;52.18
82512;BME280;72152;65.012;25.464;2023-08-12T18:40:02;101579.20;;;20.87;52.35
82512;BME280;72152;65.012;25.464;2023-08-12T18:42:49;101581.80;;;20.83;52.43
82512;BME280;72152;65.012;25.464;2023-08-12T18:45:39;101582.64;;;20.80;52.56
82512;BME280;72152;65.012;25.464;2023-08-12T18:48:43;101577.60;;;20.75;52.92
82512;BME280;72152;65.012;25.464;2023-08-12T18:51:35;101581.08;;;20.72;52.96
82512;BME280;72152;65.012;25.464;2023-08-12T18:54:28;101581.88;;;20.70;53.14
82512;BME280;72152;65.012;25.464;2023-08-12T18:57:35;101590.73;;;20.67;53.25
82512;BME280;72152;65.012;25.464;2023-08-12T19:00:41;101588.09;;;20.66;53.36
82512;BME280;72152;65.012;25.464;2023-08-12T19:03:29;101587.77;;;20.65;53.44
82512;BME280;72152;65.012;25.464;2023-08-12T19:06:43;101582.48;;;20.62;53.47
82512;BME280;72152;65.012;25.464;2023-08-12T19:09:28;101586.04;;;20.57;53.68
82512;BME280;72152;65.012;25.464;2023-08-12T19:12:16;101583.91;;;20.51;53.74
82512;BME280;72152;65.012;25.464;2023-08-12T19:15:06;101582.60;;;20.47;53.96
82512;BME280;72152;65.012;25.464;2023-08-12T19:17:50;101585.77;;;20.42;54.08
82512;BME280;72152;65.012;25.464;2023-08-12T19:23:27;101589.00;;;20.36;54.36
82512;BME280;72152;65.012;25.464;2023-08-12T19:26:13;101587.65;;;20.33;54.42
82512;BME280;72152;65.012;25.464;2023-08-12T19:29:03;101590.59;;;20.31;54.47
82512;BME280;72152;65.012;25.464;2023-08-12T19:31:50;101591.56;;;20.28;54.79
82512;BME280;72152;65.012;25.464;2023-08-12T19:34:32;101591.23;;;20.27;54.83
82512;BME280;72152;65.012;25.464;2023-08-12T19:37:22;101596.08;;;20.27;54.92
82512;BME280;72152;65.012;25.464;2023-08-12T19:40:20;101601.50;;;20.25;55.03
82512;BME280;72152;65.012;25.464;2023-08-12T19:43:11;101600.05;;;20.26;55.24
82512;BME280;72152;65.012;25.464;2023-08-12T19:45:54;101601.48;;;20.26;55.18
82512;BME280;72152;65.012;25.464;2023-08-12T19:48:45;101603.94;;;20.27;55.19
82512;BME280;72152;65.012;25.464;2023-08-12T19:51:33;101602.18;;;20.26;55.31
82512;BME280;72152;65.012;25.464;2023-08-12T19:54:17;101606.29;;;20.26;55.46
82512;BME280;72152;65.012;25.464;2023-08-12T19:57:07;101602.76;;;20.25;55.54
82512;BME280;72152;65.012;25.464;2023-08-12T19:59:58;101604.73;;;20.24;55.58
82512;BME280;72152;65.012;25.464;2023-08-12T20:02:45;101600.12;;;20.23;55.52
82512;BME280;72152;65.012;25.464;2023-08-12T20:05:37;101598.26;;;20.19;55.60
82512;BME280;72152;65.012;25.464;2023-08-12T20:08:19;101596.80;;;20.13;55.75
82512;BME280;72152;65.012;25.464;2023-08-12T20:11:01;101596.25;;;20.07;55.86
82512;BME280;72152;65.012;25.464;2023-08-12T20:13:49;101598.52;;;20.04;55.96
82512;BME280;72152;65.012;25.464;2023-08-12T20:16:38;101598.46;;;19.98;56.00
82512;BME280;72152;65.012;25.464;2023-08-12T20:19:27;101599.32;;;19.94;56.19
82512;BME280;72152;65.012;25.464;2023-08-12T20:22:13;101598.57;;;19.88;56.32
82512;BME280;72152;65.012;25.464;2023-08-12T20:24:54;101598.20;;;19.83;56.36
82512;BME280;72152;65.012;25.464;2023-08-12T20:27:51;101602.19;;;19.74;56.51
82512;BME280;72152;65.012;25.464;2023-08-12T20:30:38;101598.21;;;19.69;56.70
82512;BME280;72152;65.012;25.464;2023-08-12T20:33:27;101598.88;;;19.65;56.84
82512;BME280;72152;65.012;25.464;2023-08-12T20:36:13;101603.98;;;19.61;56.73
82512;BME280;72152;65.012;25.464;2023-08-12T20:39:06;101601.24;;;19.56;56.95
82512;BME280;72152;65.012;25.464;2023-08-12T20:41:53;101597.96;;;19.51;57.02
82512;BME280;72152;65.012;25.464;2023-08-12T20:44:43;101597.56;;;19.46;56.96
82512;BME280;72152;65.012;25.464;2023-08-12T20:47:27;101597.27;;;19.44;57.09
82512;BME280;72152;65.012;25.464;2023-08-12T20:50:26;101597.89;;;19.40;57.01
82512;BME280;72152;65.012;25.464;2023-08-12T20:53:15;101596.95;;;19.36;57.16
82512;BME280;72152;65.012;25.464;2023-08-12T20:56:06;101596.33;;;19.32;57.19
82512;BME280;72152;65.012;25.464;2023-08-12T20:59:06;101597.31;;;19.29;57.30
82512;BME280;72152;65.012;25.464;2023-08-12T21:02:02;101595.05;;;19.25;57.43
82512;BME280;72152;65.012;25.464;2023-08-12T21:04:48;101596.75;;;19.21;57.48
82512;BME280;72152;65.012;25.464;2023-08-12T21:07:29;101600.41;;;19.17;57.54
82512;BME280;72152;65.012;25.464;2023-08-12T21:13:11;101604.23;;;19.14;57.60
82512;BME280;72152;65.012;25.464;2023-08-12T21:16:32;101603.05;;;19.12;57.70
82512;BME280;72152;65.012;25.464;2023-08-12T21:19:49;101603.08;;;19.04;57.82
82512;BME280;72152;65.012;25.464;2023-08-12T21:22:57;101599.29;;;18.98;57.88
82512;BME280;72152;65.012;25.464;2023-08-12T21:26:17;101597.05;;;18.94;58.16
82512;BME280;72152;65.012;25.464;2023-08-12T21:29:41;101601.07;;;18.91;58.08
82512;BME280;72152;65.012;25.464;2023-08-12T21:33:04;101606.56;;;18.84;58.45
82512;BME280;72152;65.012;25.464;2023-08-12T21:36:05;101613.23;;;18.82;58.38
82512;BME280;72152;65.012;25.464;2023-08-12T21:39:26;101606.90;;;18.78;58.60
82512;BME280;72152;65.012;25.464;2023-08-12T21:42:34;101607.89;;;18.73;58.65
82512;BME280;72152;65.012;25.464;2023-08-12T21:48:59;101610.59;;;18.65;58.74
82512;BME280;72152;65.012;25.464;2023-08-12T21:52:44;101614.60;;;18.61;58.94
82512;BME280;72152;65.012;25.464;2023-08-12T21:56:10;101617.85;;;18.59;58.92
82512;BME280;72152;65.012;25.464;2023-08-12T21:59:57;101617.71;;;18.58;59.10
82512;BME280;72152;65.012;25.464;2023-08-12T22:03:30;101619.01;;;18.55;59.29
82512;BME280;72152;65.012;25.464;2023-08-12T22:06:56;101622.17;;;18.57;59.06
82512;BME280;72152;65.012;25.464;2023-08-12T22:09:51;101623.73;;;18.59;59.11
82512;BME280;72152;65.012;25.464;2023-08-12T22:13:17;101628.03;;;18.58;59.05
82512;BME280;72152;65.012;25.464;2023-08-12T22:16:24;101624.52;;;18.55;58.89
82512;BME280;72152;65.012;25.464;2023-08-12T22:19:28;101624.36;;;18.55;59.01
82512;BME280;72152;65.012;25.464;2023-08-12T22:22:38;101620.73;;;18.50;59.13
82512;BME280;72152;65.012;25.464;2023-08-12T22:25:38;101624.94;;;18.45;59.25
82512;BME280;72152;65.012;25.464;2023-08-12T22:28:46;101627.30;;;18.42;59.30
82512;BME280;72152;65.012;25.464;2023-08-12T22:31:34;101633.95;;;18.39;59.50
82512;BME280;72152;65.012;25.464;2023-08-12T22:34:54;101635.79;;;18.36;59.50
82512;BME280;72152;65.012;25.464;2023-08-12T22:38:11;101633.84;;;18.35;59.85
82512;BME280;72152;65.012;25.464;2023-08-12T22:41:25;101632.97;;;18.34;59.76
82512;BME280;72152;65.012;25.464;2023-08-12T22:44:37;101633.70;;;18.33;59.81
82512;BME280;72152;65.012;25.464;2023-08-12T22:47:43;101628.59;;;18.30;59.72
82512;BME280;72152;65.012;25.464;2023-08-12T22:50:55;101629.53;;;18.28;59.67
82512;BME280;72152;65.012;25.464;2023-08-12T22:53:47;101624.40;;;18.26;59.57
82512;BME280;72152;65.012;25.464;2023-08-12T22:56:52;101622.13;;;18.24;59.80
82512;BME280;72152;65.012;25.464;2023-08-12T23:00:20;101620.13;;;18.18;59.86
82512;BME280;72152;65.012;25.464;2023-08-12T23:03:13;101617.88;;;18.15;59.92
82512;BME280;72152;65.012;25.464;2023-08-12T23:06:22;101612.40;;;18.12;60.13
82512;BME280;72152;65.012;25.464;2023-08-12T23:09:29;101615.27;;;18.10;59.96
82512;BME280;72152;65.012;25.464;2023-08-12T23:12:57;101621.00;;;18.09;60.17
82512;BME280;72152;65.012;25.464;2023-08-12T23:15:47;101624.27;;;18.07;60.32
82512;BME280;72152;65.012;25.464;2023-08-12T23:18:38;101624.80;;;18.06;60.14
82512;BME280;72152;65.012;25.464;2023-08-12T23:21:21;101620.75;;;18.04;60.22
82512;BME280;72152;65.012;25.464;2023-08-12T23:25:01;101623.78;;;18.04;60.23
82512;BME280;72152;65.012;25.464;2023-08-12T23:28:45;101619.86;;;18.04;60.30
82512;BME280;72152;65.012;25.464;2023-08-12T23:32:08;101621.30;;;18.02;60.28
82512;BME280;72152;65.012;25.464;2023-08-12T23:34:59;101615.96;;;18.02;60.36
82512;BME280;72152;65.012;25.464;2023-08-12T23:38:31;101615.96;;;18.02;60.23
82512;BME280;72152;65.012;25.464;2023-08-12T23:41:56;101615.96;;;18.03;60.15
82512;BME280;72152;65.012;25.464;2023-08-12T23:45:29;101614.36;;;18.03;60.24
82512;BME280;72152;65.012;25.464;2023-08-12T23:48:56;101615.23;;;18.04;60.21
82512;BME280;72152;65.012;25.464;2023-08-12T23:52:22;101618.40;;;18.06;60.37
82512;BME280;72152;65.012;25.464;2023-08-12T23:56:10;101614.28;;;18.07;60.16
82512;BME280;72152;65.012;25.464;2023-08-12T23:59:17;101618.73;;;18.07;60.05
